createdAt,value
2022-09-15T00:01:55.638Z,13.30
2022-09-15T00:04:25.031Z,13.26
2022-09-15T00:06:54.337Z,13.24
2022-09-15T00:09:23.674Z,13.23
2022-09-15T00:11:53.077Z,13.24
2022-09-15T00:14:22.291Z,13.23
2022-09-15T00:16:51.706Z,13.23
2022-09-15T00:19:21.068Z,13.21
2022-09-15T00:21:50.284Z,13.17
2022-09-15T00:24:19.692Z,13.14
2022-09-15T00:26:48.887Z,13.12
2022-09-15T00:29:18.155Z,13.09
2022-09-15T00:31:47.596Z,13.07
2022-09-15T00:34:17.100Z,13.02
2022-09-15T00:36:46.339Z,13.03
2022-09-15T00:39:15.747Z,13.01
2022-09-15T00:41:45.262Z,12.97
2022-09-15T00:44:26.394Z,12.96
2022-09-15T00:47:17.694Z,12.95
2022-09-15T00:49:33.866Z,12.97
2022-09-15T00:52:18.149Z,13.01
2022-09-15T00:55:02.377Z,13.01
2022-09-15T00:57:49.677Z,13.00
2022-09-15T01:00:21.820Z,13.02
2022-09-15T01:02:51.317Z,13.01
2022-09-15T01:05:23.465Z,13.02
2022-09-15T01:08:01.415Z,13.03
2022-09-15T01:10:33.192Z,13.04
2022-09-15T01:13:05.333Z,13.00
2022-09-15T01:15:37.722Z,13.00
2022-09-15T01:18:12.869Z,13.00
2022-09-15T01:20:45.263Z,12.99
2022-09-15T01:23:34.052Z,12.96
2022-09-15T01:26:11.896Z,12.93
2022-09-15T01:28:53.261Z,12.87
2022-09-15T01:31:30.814Z,12.82
2022-09-15T01:34:06.053Z,12.78
2022-09-15T01:36:50.622Z,12.77
2022-09-15T01:39:25.403Z,12.74
2022-09-15T01:41:56.920Z,12.72
2022-09-15T01:44:29.424Z,12.69
2022-09-15T01:47:05.006Z,12.72
2022-09-15T01:49:49.351Z,12.70
2022-09-15T01:52:21.073Z,12.69
2022-09-15T01:54:53.638Z,12.74
2022-09-15T01:57:22.672Z,12.72
2022-09-15T01:59:52.978Z,12.70
2022-09-15T02:02:31.394Z,12.71
2022-09-15T02:05:23.319Z,12.65
2022-09-15T02:07:58.837Z,12.66
2022-09-15T02:10:41.120Z,12.60
2022-09-15T02:13:14.356Z,12.57
2022-09-15T02:15:50.784Z,12.53
2022-09-15T02:18:30.605Z,12.49
2022-09-15T02:21:03.407Z,12.51
2022-09-15T02:23:36.734Z,12.48
2022-09-15T02:26:13.224Z,12.48
2022-09-15T02:28:43.894Z,12.47
2022-09-15T02:31:16.324Z,12.47
2022-09-15T02:34:04.003Z,12.45
2022-09-15T02:36:33.455Z,12.48
2022-09-15T02:39:05.814Z,12.49
2022-09-15T02:41:37.312Z,12.43
2022-09-15T02:44:06.742Z,12.43
2022-09-15T02:46:36.058Z,12.50
2022-09-15T02:49:05.367Z,12.54
2022-09-15T02:51:34.840Z,12.52
2022-09-15T02:54:04.122Z,12.49
2022-09-15T02:56:33.372Z,12.51
2022-09-15T02:59:02.620Z,12.47
2022-09-15T03:01:32.332Z,12.44
2022-09-15T03:04:03.517Z,12.45
2022-09-15T03:06:34.401Z,12.43
2022-09-15T03:09:06.873Z,12.39
2022-09-15T03:11:36.509Z,12.37
2022-09-15T03:14:08.165Z,12.45
2022-09-15T03:16:37.497Z,12.51
2022-09-15T03:19:06.794Z,12.51
2022-09-15T03:21:37.595Z,12.57
2022-09-15T03:24:07.071Z,12.60
2022-09-15T03:26:36.311Z,12.64
2022-09-15T03:29:05.581Z,12.68
2022-09-15T03:31:34.846Z,12.74
2022-09-15T03:34:04.179Z,12.74
2022-09-15T03:36:33.854Z,12.78
2022-09-15T03:39:03.555Z,12.88
2022-09-15T03:41:32.763Z,12.96
2022-09-15T03:44:02.140Z,13.09
2022-09-15T03:46:31.357Z,13.18
2022-09-15T03:49:00.574Z,13.26
2022-09-15T03:51:29.918Z,13.35
2022-09-15T03:53:59.201Z,13.39
2022-09-15T03:56:33.152Z,13.42
2022-09-15T03:59:03.426Z,13.44
2022-09-15T04:01:33.139Z,13.48
2022-09-15T04:04:02.705Z,13.50
2022-09-15T04:06:32.065Z,13.53
2022-09-15T04:09:01.542Z,13.53
2022-09-15T04:11:31.523Z,13.54
2022-09-15T04:14:00.801Z,13.50
2022-09-15T04:16:30.224Z,13.50
2022-09-15T04:18:59.664Z,13.51
2022-09-15T04:21:30.065Z,13.50
2022-09-15T04:23:59.360Z,13.52
2022-09-15T04:26:33.939Z,13.54
2022-09-15T04:29:05.419Z,13.53
2022-09-15T04:31:35.314Z,13.54
2022-09-15T04:34:05.092Z,13.54
2022-09-15T04:36:34.478Z,13.51
2022-09-15T04:39:03.847Z,13.49
2022-09-15T04:41:33.661Z,13.42
2022-09-15T04:44:03.671Z,13.33
2022-09-15T04:46:32.955Z,13.30
2022-09-15T04:49:02.327Z,13.26
2022-09-15T04:51:31.534Z,13.23
2022-09-15T04:54:00.791Z,13.17
2022-09-15T04:56:30.075Z,13.14
2022-09-15T04:59:03.848Z,13.15
2022-09-15T05:01:34.301Z,13.13
2022-09-15T05:04:05.394Z,13.10
2022-09-15T05:06:35.553Z,13.10
2022-09-15T05:09:10.283Z,13.09
2022-09-15T05:11:38.687Z,13.08
2022-09-15T05:14:09.659Z,13.08
2022-09-15T05:16:40.262Z,13.11
2022-09-15T05:19:11.575Z,13.15
2022-09-15T05:21:40.900Z,13.17
2022-09-15T05:24:10.238Z,13.21
2022-09-15T05:26:39.589Z,13.23
2022-09-15T05:29:08.941Z,13.24
2022-09-15T05:31:38.196Z,13.28
2022-09-15T05:34:07.831Z,13.31
2022-09-15T05:36:37.131Z,13.34
2022-09-15T05:39:06.655Z,13.38
2022-09-15T05:41:35.884Z,13.42
2022-09-15T05:44:05.171Z,13.45
2022-09-15T05:46:34.571Z,13.47
2022-09-15T05:49:03.912Z,13.50
2022-09-15T05:51:33.260Z,13.51
2022-09-15T05:54:02.510Z,13.55
2022-09-15T05:56:31.742Z,13.58
2022-09-15T05:59:01.028Z,13.61
2022-09-15T06:01:31.167Z,13.63
2022-09-15T06:04:00.892Z,13.64
2022-09-15T06:06:32.360Z,13.62
2022-09-15T06:09:02.164Z,13.68
2022-09-15T06:11:34.717Z,13.75
2022-09-15T06:14:05.976Z,13.81
2022-09-15T06:16:36.176Z,13.90
2022-09-15T06:19:05.448Z,13.95
2022-09-15T06:21:34.698Z,14.03
2022-09-15T06:24:07.130Z,13.94
2022-09-15T06:26:35.922Z,14.05
2022-09-15T06:29:06.375Z,14.14
2022-09-15T06:31:36.035Z,14.19
2022-09-15T06:34:05.550Z,14.24
2022-09-15T06:36:34.871Z,14.32
2022-09-15T06:39:04.225Z,14.42
2022-09-15T06:41:52.909Z,14.45
2022-09-15T06:44:04.648Z,14.49
2022-09-15T06:46:34.143Z,14.60
2022-09-15T06:49:03.544Z,14.68
2022-09-15T06:51:34.567Z,14.75
2022-09-15T06:54:05.023Z,14.75
2022-09-15T06:56:38.049Z,14.65
2022-09-15T06:59:05.660Z,14.65
2022-09-15T07:01:35.176Z,14.66
2022-09-15T07:04:06.513Z,14.69
2022-09-15T07:06:36.311Z,14.74
2022-09-15T07:09:06.776Z,14.83
2022-09-15T07:11:36.198Z,14.91
2022-09-15T07:14:05.978Z,15.01
2022-09-15T07:16:35.459Z,15.04
2022-09-15T07:19:05.937Z,15.19
2022-09-15T07:21:35.777Z,15.22
2022-09-15T07:24:07.791Z,15.20
2022-09-15T07:26:37.487Z,15.19
2022-09-15T07:29:07.484Z,15.12
2022-09-15T07:31:38.530Z,15.06
2022-09-15T07:34:08.295Z,15.08
2022-09-15T07:36:37.878Z,15.09
2022-09-15T07:39:07.168Z,15.07
2022-09-15T07:41:37.287Z,15.06
2022-09-15T07:44:08.346Z,15.03
2022-09-15T07:46:37.689Z,15.03
2022-09-15T07:49:08.215Z,15.12
2022-09-15T07:51:37.461Z,15.19
2022-09-15T07:54:07.199Z,15.25
2022-09-15T07:56:36.930Z,15.34
2022-09-15T07:59:06.223Z,15.33
2022-09-15T08:01:35.552Z,15.36
2022-09-15T08:04:04.942Z,15.42
2022-09-15T08:06:34.359Z,15.41
2022-09-15T08:09:03.887Z,15.37
2022-09-15T08:11:33.683Z,15.44
2022-09-15T08:14:03.231Z,15.55
2022-09-15T08:16:32.592Z,15.63
2022-09-15T08:19:02.098Z,15.69
2022-09-15T08:21:33.149Z,15.77
2022-09-15T08:24:02.510Z,15.80
2022-09-15T08:26:31.944Z,15.81
2022-09-15T08:29:01.622Z,15.95
2022-09-15T08:31:31.269Z,16.00
2022-09-15T08:34:02.257Z,16.10
2022-09-15T08:36:31.661Z,16.13
2022-09-15T08:39:01.305Z,16.25
2022-09-15T08:41:36.646Z,16.32
2022-09-15T08:44:20.707Z,16.35
2022-09-15T08:46:55.139Z,16.34
2022-09-15T08:49:57.355Z,16.36
2022-09-15T08:52:44.999Z,16.26
2022-09-15T08:55:41.600Z,16.07
2022-09-15T08:58:19.329Z,16.03
2022-09-15T09:00:52.068Z,15.64
2022-09-15T09:03:30.231Z,15.35
2022-09-15T09:06:14.703Z,15.08
2022-09-15T09:09:05.783Z,14.88
2022-09-15T09:12:00.889Z,14.79
2022-09-15T09:14:45.049Z,14.78
2022-09-15T09:17:29.794Z,14.83
2022-09-15T09:20:32.086Z,14.90
2022-09-15T09:23:04.164Z,14.99
2022-09-15T09:25:33.995Z,15.10
2022-09-15T09:28:04.927Z,15.28
2022-09-15T09:30:34.957Z,15.53
2022-09-15T09:33:23.028Z,15.70
2022-09-15T09:35:53.348Z,16.16
2022-09-15T09:38:25.813Z,17.84
2022-09-15T09:40:59.852Z,18.02
2022-09-15T09:43:27.919Z,19.35
2022-09-15T09:45:57.343Z,18.49
2022-09-15T09:48:28.148Z,18.50
2022-09-15T09:50:57.445Z,17.73
2022-09-15T09:53:32.052Z,17.43
2022-09-15T09:56:26.866Z,17.10
2022-09-15T09:58:56.161Z,16.47
2022-09-15T10:01:27.348Z,16.41
2022-09-15T10:04:18.307Z,16.44
2022-09-15T10:06:48.093Z,16.74
2022-09-15T10:09:19.323Z,17.45
2022-09-15T10:11:51.529Z,18.02
2022-09-15T10:14:29.093Z,18.17
2022-09-15T10:17:00.599Z,18.10
2022-09-15T10:19:32.228Z,18.11
2022-09-15T10:22:02.355Z,18.12
2022-09-15T10:24:37.183Z,18.03
2022-09-15T10:27:33.925Z,18.40
2022-09-15T10:30:15.536Z,18.67
2022-09-15T10:32:44.742Z,18.54
2022-09-15T10:35:18.717Z,18.41
2022-09-15T10:37:54.146Z,18.97
2022-09-15T10:40:33.632Z,19.70
2022-09-15T10:43:22.436Z,20.47
2022-09-15T10:46:03.067Z,20.37
2022-09-15T10:48:56.833Z,20.42
2022-09-15T10:51:46.175Z,20.98
2022-09-15T10:54:35.389Z,20.66
2022-09-15T10:57:07.887Z,20.60
2022-09-15T10:59:46.464Z,21.35
2022-09-15T11:02:45.738Z,21.89
2022-09-15T11:05:37.452Z,22.25
2022-09-15T11:08:31.033Z,22.44
2022-09-15T11:11:12.510Z,21.87
2022-09-15T11:13:57.282Z,21.79
2022-09-15T11:16:49.032Z,21.42
2022-09-15T11:19:21.527Z,23.20
2022-09-15T11:21:58.930Z,23.20
2022-09-15T11:24:52.507Z,23.00
2022-09-15T11:27:25.217Z,22.65
2022-09-15T11:30:09.237Z,22.37
2022-09-15T11:32:47.195Z,22.06
2022-09-15T11:35:29.425Z,22.10
2022-09-15T11:38:01.814Z,22.53
2022-09-15T11:40:34.513Z,21.73
2022-09-15T11:43:21.370Z,21.87
2022-09-15T11:45:53.947Z,22.52
2022-09-15T11:48:34.885Z,21.16
2022-09-15T11:51:04.635Z,21.21
2022-09-15T11:53:42.985Z,21.75
2022-09-15T11:56:24.586Z,22.74
2022-09-15T11:59:16.542Z,22.26
2022-09-15T12:01:55.136Z,20.79
2022-09-15T12:04:33.235Z,20.53
2022-09-15T12:07:17.586Z,20.90
2022-09-15T12:09:48.247Z,21.02
2022-09-15T12:12:19.404Z,21.01
2022-09-15T12:14:50.401Z,20.75
2022-09-15T12:17:26.014Z,21.37
2022-09-15T12:20:26.647Z,21.15
2022-09-15T12:23:05.555Z,21.78
2022-09-15T12:25:47.292Z,21.71
2022-09-15T12:28:28.258Z,21.88
2022-09-15T12:31:30.599Z,22.24
2022-09-15T12:34:19.860Z,22.05
2022-09-15T12:36:51.446Z,21.90
2022-09-15T12:39:23.547Z,22.05
2022-09-15T12:42:20.489Z,22.43
2022-09-15T12:44:52.956Z,22.20
2022-09-15T12:47:28.967Z,21.05
2022-09-15T12:50:01.274Z,20.38
2022-09-15T12:52:31.091Z,19.79
2022-09-15T12:55:02.667Z,19.16
2022-09-15T12:57:37.188Z,19.22
2022-09-15T13:00:30.466Z,18.80
2022-09-15T13:03:01.868Z,18.93
2022-09-15T13:05:47.308Z,18.99
2022-09-15T13:08:31.837Z,19.04
2022-09-15T13:11:03.611Z,19.07
2022-09-15T13:13:39.925Z,19.32
2022-09-15T13:16:12.366Z,18.90
2022-09-15T13:18:43.326Z,18.98
2022-09-15T13:21:15.455Z,18.77
2022-09-15T13:23:48.243Z,18.86
2022-09-15T13:26:21.830Z,18.80
2022-09-15T13:28:54.133Z,18.66
2022-09-15T13:31:29.769Z,18.38
2022-09-15T13:40:22.265Z,18.24
2022-09-15T13:42:57.603Z,18.17
2022-09-15T13:45:49.840Z,18.22
2022-09-15T13:48:25.128Z,18.22
2022-09-15T13:51:02.137Z,18.14
2022-09-15T13:53:52.886Z,18.05
2022-09-15T13:56:35.695Z,17.86
2022-09-15T13:59:12.261Z,17.72
2022-09-15T14:01:39.035Z,17.47
2022-09-15T14:04:31.668Z,17.04
2022-09-15T14:07:02.510Z,16.85
2022-09-15T14:09:34.225Z,16.62
2022-09-15T14:12:07.010Z,16.57
2022-09-15T14:14:39.530Z,16.65
2022-09-15T14:17:24.104Z,16.57
2022-09-15T14:19:56.577Z,16.62
2022-09-15T14:22:36.095Z,16.61
2022-09-15T14:25:11.271Z,16.62
2022-09-15T14:27:43.706Z,16.60
2022-09-15T14:30:28.432Z,16.57
2022-09-15T14:33:02.379Z,16.43
2022-09-15T14:35:37.690Z,16.07
2022-09-15T14:38:06.991Z,15.72
2022-09-15T14:40:40.447Z,15.64
2022-09-15T14:43:26.783Z,15.45
2022-09-15T14:46:04.967Z,15.29
2022-09-15T14:48:28.374Z,15.23
2022-09-15T14:51:27.944Z,15.21
2022-09-15T14:53:58.421Z,15.32
2022-09-15T14:56:30.676Z,15.47
2022-09-15T14:59:03.185Z,15.62
2022-09-15T15:01:38.664Z,15.87
2022-09-15T15:04:25.891Z,15.91
2022-09-15T15:07:16.959Z,16.07
2022-09-15T15:10:00.158Z,16.05
2022-09-15T15:12:41.504Z,16.13
2022-09-15T15:15:15.791Z,16.14
2022-09-15T15:17:49.049Z,15.99
2022-09-15T15:20:22.576Z,15.99
2022-09-15T15:23:17.650Z,15.94
2022-09-15T15:25:51.388Z,15.92
2022-09-15T15:28:34.929Z,15.97
2022-09-15T15:31:10.508Z,16.02
2022-09-15T15:33:49.086Z,16.05
2022-09-15T15:36:23.805Z,15.99
2022-09-15T15:38:59.284Z,15.76
2022-09-15T15:41:30.673Z,15.48
2022-09-15T15:44:08.831Z,15.26
2022-09-15T15:46:55.694Z,15.07
2022-09-15T15:49:30.057Z,14.76
2022-09-15T15:52:01.672Z,14.64
2022-09-15T15:54:31.163Z,14.67
2022-09-15T15:57:19.710Z,14.71
2022-09-15T15:59:48.982Z,14.76
2022-09-15T16:02:18.243Z,14.83
2022-09-15T16:04:47.871Z,14.83
2022-09-15T16:07:19.306Z,14.90
2022-09-15T16:09:49.329Z,14.92
2022-09-15T16:12:18.533Z,14.91
2022-09-15T16:14:47.860Z,14.94
2022-09-15T16:17:17.060Z,15.06
2022-09-15T16:19:46.307Z,15.10
2022-09-15T16:22:20.660Z,15.23
2022-09-15T16:24:50.111Z,15.38
2022-09-15T16:27:19.774Z,15.48
2022-09-15T16:29:49.476Z,15.57
2022-09-15T16:32:20.925Z,15.64
2022-09-15T16:34:51.947Z,15.72
2022-09-15T16:37:22.003Z,15.71
2022-09-15T16:39:54.535Z,15.74
2022-09-15T16:42:23.771Z,15.72
2022-09-15T16:44:53.007Z,15.69
2022-09-15T16:47:22.777Z,15.77
2022-09-15T16:49:52.679Z,15.74
2022-09-15T16:52:21.879Z,15.70
2022-09-15T16:54:51.204Z,15.69
2022-09-15T16:57:20.394Z,15.73
2022-09-15T16:59:49.670Z,15.77
2022-09-15T17:02:19.037Z,15.64
2022-09-15T17:04:48.393Z,15.44
2022-09-15T17:07:18.241Z,15.43
2022-09-15T17:09:49.259Z,15.32
2022-09-15T17:12:18.453Z,15.36
2022-09-15T17:14:47.711Z,15.33
2022-09-15T17:17:26.670Z,15.28
2022-09-15T17:19:55.989Z,15.21
2022-09-15T17:22:25.332Z,15.15
2022-09-15T17:24:54.607Z,15.02
2022-09-15T17:27:23.973Z,14.92
2022-09-15T17:29:53.345Z,14.88
2022-09-15T17:32:22.723Z,14.91
2022-09-15T17:34:52.148Z,14.86
2022-09-15T17:37:21.376Z,14.84
2022-09-15T17:39:53.511Z,14.80
2022-09-15T17:42:21.957Z,14.76
2022-09-15T17:44:51.373Z,14.75
2022-09-15T17:47:20.597Z,14.71
2022-09-15T17:49:50.013Z,14.65
2022-09-15T17:52:19.243Z,14.60
2022-09-15T17:54:48.572Z,14.51
2022-09-15T17:57:17.897Z,14.54
2022-09-15T17:59:47.328Z,14.52
2022-09-15T18:02:21.325Z,14.48
2022-09-15T18:04:50.842Z,14.45
2022-09-15T18:07:20.139Z,14.37
2022-09-15T18:09:49.493Z,14.33
2022-09-15T18:12:19.664Z,14.25
2022-09-15T18:14:48.981Z,14.19
2022-09-15T18:17:18.215Z,14.16
2022-09-15T18:19:47.636Z,14.10
2022-09-15T18:22:16.967Z,14.06
2022-09-15T18:24:46.180Z,14.01
2022-09-15T18:27:15.516Z,14.01
2022-09-15T18:29:44.726Z,13.99
2022-09-15T18:32:14.890Z,14.04
2022-09-15T18:34:44.112Z,14.03
2022-09-15T18:37:13.550Z,14.08
2022-09-15T18:39:43.469Z,14.09
2022-09-15T18:42:12.814Z,14.13
2022-09-15T18:44:42.314Z,14.13
2022-09-15T18:47:11.708Z,14.10
2022-09-15T18:49:40.917Z,14.02
2022-09-15T18:52:10.296Z,13.94
2022-09-15T18:54:39.882Z,13.85
2022-09-15T18:57:09.888Z,13.78
2022-09-15T18:59:39.175Z,13.70
2022-09-15T19:02:11.943Z,13.64
2022-09-15T19:04:42.340Z,13.52
2022-09-15T19:07:12.473Z,13.38
2022-09-15T19:09:41.738Z,13.28
2022-09-15T19:12:11.245Z,13.23
2022-09-15T19:14:44.599Z,13.13
2022-09-15T19:17:12.250Z,13.08
2022-09-15T19:19:41.460Z,13.09
2022-09-15T19:22:10.827Z,13.06
2022-09-15T19:24:40.113Z,12.99
2022-09-15T19:27:10.106Z,13.03
2022-09-15T19:29:39.382Z,13.04
2022-09-15T19:32:12.065Z,13.08
2022-09-15T19:34:42.054Z,13.12
2022-09-15T19:37:17.821Z,13.11
2022-09-15T19:39:44.685Z,13.03
2022-09-15T19:44:44.737Z,13.25
2022-09-15T19:47:14.051Z,13.30
2022-09-15T19:49:43.407Z,13.33
2022-09-15T19:52:12.874Z,13.19
2022-09-15T19:54:42.291Z,12.99
2022-09-15T19:57:11.783Z,12.73
2022-09-15T19:59:41.111Z,12.57
2022-09-15T20:02:12.102Z,12.45
2022-09-15T20:04:42.193Z,12.44
2022-09-15T20:07:12.654Z,12.40
2022-09-15T20:09:42.217Z,12.37
2022-09-15T20:12:11.739Z,12.43
2022-09-15T20:14:42.319Z,12.47
2022-09-15T20:17:11.758Z,12.51
2022-09-15T20:19:41.513Z,12.49
2022-09-15T20:22:10.887Z,12.45
2022-09-15T20:24:41.365Z,12.46
2022-09-15T20:27:10.970Z,12.45
2022-09-15T20:29:40.702Z,12.37
2022-09-15T20:32:10.489Z,12.33
2022-09-15T20:34:39.901Z,12.26
2022-09-15T20:37:09.276Z,12.20
2022-09-15T20:39:38.696Z,12.19
2022-09-15T20:42:08.201Z,12.21
2022-09-15T20:44:37.457Z,12.29
2022-09-15T20:47:07.108Z,12.33
2022-09-15T20:49:36.389Z,12.37
2022-09-15T20:52:05.873Z,12.40
2022-09-15T20:54:35.240Z,12.40
2022-09-15T20:57:04.709Z,12.42
2022-09-15T20:59:33.935Z,12.43
2022-09-15T21:02:04.942Z,12.42
2022-09-15T21:04:34.838Z,12.43
2022-09-15T21:07:04.796Z,12.41
2022-09-15T21:09:34.576Z,12.34
2022-09-15T21:12:03.981Z,12.31
2022-09-15T21:14:33.182Z,12.26
2022-09-15T21:17:02.697Z,12.23
2022-09-15T21:19:32.165Z,12.23
2022-09-15T21:22:01.536Z,12.15
2022-09-15T21:24:31.027Z,12.12
2022-09-15T21:27:18.046Z,12.08
2022-09-15T21:29:48.209Z,11.97
2022-09-15T21:32:17.512Z,11.86
2022-09-15T21:34:47.650Z,11.85
2022-09-15T21:37:16.876Z,11.86
2022-09-15T21:39:46.344Z,11.87
2022-09-15T21:42:15.815Z,11.83
2022-09-15T21:44:45.437Z,11.82
2022-09-15T21:47:15.492Z,11.76
2022-09-15T21:49:44.891Z,11.72
2022-09-15T21:52:14.415Z,11.69
2022-09-15T21:54:43.881Z,11.67
2022-09-15T21:57:14.360Z,11.63
2022-09-15T21:59:43.788Z,11.62
2022-09-15T22:02:13.381Z,11.57
2022-09-15T22:04:42.879Z,11.56
2022-09-15T22:07:12.231Z,11.52
2022-09-15T22:09:41.553Z,11.50
2022-09-15T22:12:11.031Z,11.48
2022-09-15T22:14:40.452Z,11.50
2022-09-15T22:17:09.846Z,11.50
2022-09-15T22:19:39.117Z,11.47
2022-09-15T22:22:08.947Z,11.48
2022-09-15T22:24:38.258Z,11.33
2022-09-15T22:27:07.984Z,11.26
2022-09-15T22:29:37.494Z,11.18
2022-09-15T22:32:06.950Z,11.05
2022-09-15T22:34:36.170Z,11.06
2022-09-15T22:37:05.414Z,11.14
2022-09-15T22:39:57.221Z,11.31
2022-09-15T22:42:05.809Z,11.48
2022-09-15T22:44:35.148Z,11.55
2022-09-15T22:47:06.351Z,11.61
2022-09-15T22:49:35.714Z,11.65
2022-09-15T22:52:05.440Z,11.69
2022-09-15T22:54:34.749Z,11.74
2022-09-15T22:57:04.506Z,11.83
2022-09-15T22:59:33.736Z,11.90
2022-09-15T23:02:03.105Z,11.92
2022-09-15T23:04:32.499Z,11.92
2022-09-15T23:07:01.831Z,11.92
2022-09-15T23:09:31.112Z,11.93
2022-09-15T23:12:00.477Z,11.96
2022-09-15T23:14:29.683Z,11.96
2022-09-15T23:16:59.029Z,12.00
2022-09-15T23:19:28.335Z,12.01
2022-09-15T23:21:57.741Z,12.01
2022-09-15T23:24:27.055Z,11.96
2022-09-15T23:26:56.670Z,11.97
2022-09-15T23:29:26.356Z,11.99
2022-09-15T23:31:55.655Z,12.00
2022-09-15T23:34:24.943Z,11.99
2022-09-15T23:36:54.184Z,12.02
2022-09-15T23:39:23.576Z,12.08
2022-09-15T23:41:53.113Z,12.06
2022-09-15T23:44:22.432Z,12.08
2022-09-15T23:46:52.052Z,12.05
2022-09-15T23:49:21.788Z,12.01
2022-09-15T23:51:51.037Z,11.94
2022-09-15T23:54:20.354Z,11.81
2022-09-15T23:56:49.683Z,11.73
2022-09-15T23:59:19.225Z,11.63
